Time;durP1;ratioP1;P1;durP2;ratioP2;P2;SDS_P1;SDS_P2;PMS_P1;PMS_P2;Temp;Humidity;BMP_temperature;BMP_pressure;BME280_temperature;BME280_humidity;BME280_pressure;Samples;Min_cycle;Max_cycle;Signal;HPM_P1;HPM_P2
2022/09/10 00:01:52;;;;;;;;;;;;;;;;;;;;;
2022/09/10 00:04:19;;;;;;;;;3.00;1.00;;;;;18.09;64.68;100970.91;5058633;27;75190;-72
2022/09/10 00:10:06;;;;;;;;;1.00;1.00;;;;;17.87;64.79;100949.38;5056776;27;45774;-72
2022/09/10 00:12:31;;;;;;;;;2.33;1.00;;;;;17.93;64.64;100967.78;5060609;27;45401;-72
2022/09/10 00:14:57;;;;;;;;;1.00;1.00;;;;;18.01;64.96;100979.06;5052147;28;46860;-73
2022/09/10 00:17:23;;;;;;;;;3.00;1.00;;;;;17.92;64.84;100966.91;5051959;28;45445;-74
2022/09/10 00:19:48;;;;;;;;;2.00;2.00;;;;;17.98;65.09;100985.28;5071249;27;45777;-72
2022/09/10 00:22:14;;;;;;;;;5.00;2.00;;;;;17.94;64.84;100977.47;5076602;27;45481;-73
2022/09/10 00:24:39;;;;;;;;;3.00;1.00;;;;;17.82;64.84;100956.56;5075719;27;45659;-72
2022/09/10 00:27:08;;;;;;;;;1.00;1.00;;;;;17.91;65.01;100973.09;5061635;27;45627;-72
2022/09/10 00:29:34;;;;;;;;;5.67;3.33;;;;;17.59;65.05;100907.66;5057553;27;45558;-73
2022/09/10 00:31:59;;;;;;;;;2.00;2.00;;;;;17.70;64.93;100932.09;5077751;27;45725;-72
2022/09/10 00:34:25;;;;;;;;;5.33;2.00;;;;;17.88;65.11;100953.78;5046493;28;45591;-71
2022/09/10 00:36:50;;;;;;;;;1.67;1.00;;;;;17.92;64.89;100958.09;5059831;27;45394;-73
2022/09/10 00:39:17;;;;;;;;;3.00;1.33;;;;;17.76;64.94;100926.63;5073185;27;45529;-71
2022/09/10 00:41:45;;;;;;;;;3.00;2.00;;;;;17.96;64.86;100958.00;5078015;27;45626;-72
2022/09/10 00:44:38;;;;;;;;;4.00;1.00;;;;;17.97;64.86;100964.16;5056850;28;47153;-71
2022/09/10 00:47:18;;;;;;;;;2.33;1.00;;;;;17.92;64.96;100960.75;5084560;27;45503;-71
2022/09/10 00:50:13;;;;;;;;;1.33;1.33;;;;;17.95;65.09;100965.97;5055187;27;45710;-72
2022/09/10 00:52:39;;;;;;;;;3.00;2.00;;;;;17.95;65.02;100968.63;5027967;27;45600;-72
2022/09/10 00:55:05;;;;;;;;;1.67;1.00;;;;;17.94;65.00;100967.75;5054410;28;45514;-71
2022/09/10 00:57:31;;;;;;;;;2.00;2.00;;;;;17.78;64.96;100947.81;5055066;27;45651;-73
2022/09/10 01:00:08;;;;;;;;;1.00;1.00;;;;;17.81;64.85;100947.75;5037139;28;45854;-73
2022/09/10 01:02:34;;;;;;;;;1.33;1.00;;;;;17.94;65.11;100966.88;5055142;27;45452;-71
2022/09/10 01:05:02;;;;;;;;;1.00;1.00;;;;;17.86;64.92;100947.63;5036190;28;46717;-72
2022/09/10 01:07:29;;;;;;;;;1.67;1.33;;;;;17.93;64.83;100970.44;5053989;27;45455;-72
2022/09/10 01:10:06;;;;;;;;;1.00;1.00;;;;;17.80;65.00;100940.69;5048818;28;45763;-72
2022/09/10 01:13:14;;;;;;;;;1.67;1.33;;;;;17.84;65.04;100950.31;5054526;27;45465;-72
2022/09/10 01:16:07;;;;;;;;;1.67;1.67;;;;;17.89;65.20;100953.75;5035891;28;47675;-72
2022/09/10 01:19:06;;;;;;;;;1.67;1.00;;;;;17.86;65.13;100956.44;5061191;27;45458;-71
2022/09/10 01:21:39;;;;;;;;;5.33;1.00;;;;;17.82;65.37;100943.31;5075688;27;45461;-71
2022/09/10 01:24:43;;;;;;;;;1.00;1.00;;;;;17.85;65.33;100959.16;5073833;27;47994;-72
2022/09/10 01:27:31;;;;;;;;;1.67;1.00;;;;;17.84;65.61;100963.56;5061179;27;46436;-73
2022/09/10 01:30:18;;;;;;;;;0.00;0.00;;;;;17.76;65.40;100949.63;5073817;27;45869;-72
2022/09/10 01:33:05;;;;;;;;;1.33;1.00;;;;;17.81;65.68;100963.66;5063522;27;45501;-72
2022/09/10 01:35:42;;;;;;;;;2.00;2.00;;;;;17.75;66.03;100959.34;5075493;27;45692;-73
2022/09/10 01:38:16;;;;;;;;;3.67;1.00;;;;;17.78;65.82;100969.88;5077663;27;46718;-72
2022/09/10 01:40:43;;;;;;;;;3.67;1.67;;;;;17.65;65.49;100938.41;5053541;28;45617;-70
2022/09/10 01:43:10;;;;;;;;;2.67;2.00;;;;;17.78;65.68;100961.06;5063518;27;45532;-72
2022/09/10 01:45:51;;;;;;;;;2.67;1.00;;;;;17.79;65.52;100970.72;5089880;27;45576;-72
2022/09/10 01:48:38;;;;;;;;;1.00;1.00;;;;;17.70;65.70;100958.59;5074086;27;46106;-73
2022/09/10 01:51:37;;;;;;;;;1.00;1.00;;;;;17.77;65.63;100965.47;5075704;27;45785;-72
2022/09/10 01:54:11;;;;;;;;;1.00;1.00;;;;;17.76;65.72;100968.16;5046770;28;45473;-72
2022/09/10 01:56:46;;;;;;;;;1.00;1.00;;;;;17.55;65.74;100935.97;5079681;27;45592;-71
2022/09/10 01:59:33;;;;;;;;;4.33;2.33;;;;;17.69;65.63;100951.53;5060137;28;47726;-73
2022/09/10 02:02:13;;;;;;;;;2.00;2.00;;;;;17.76;65.69;100971.66;5078631;27;45556;-72
2022/09/10 02:04:42;;;;;;;;;2.00;2.00;;;;;17.72;65.63;100963.84;5079268;27;45470;-71
2022/09/10 02:07:10;;;;;;;;;2.67;1.67;;;;;17.78;65.71;100976.94;5078832;27;45431;-73
2022/09/10 02:09:38;;;;;;;;;3.00;1.00;;;;;17.58;65.52;100941.22;5053877;27;46190;-71
2022/09/10 02:12:03;;;;;;;;;1.00;1.00;;;;;17.47;65.65;100927.34;5054233;27;45768;-73
2022/09/10 02:14:29;;;;;;;;;2.00;2.00;;;;;17.74;65.62;100976.13;5035874;28;45543;-72
2022/09/10 02:16:57;;;;;;;;;1.67;1.67;;;;;17.75;65.58;100969.94;5053792;27;45562;-72
2022/09/10 02:19:23;;;;;;;;;1.00;1.00;;;;;17.74;65.89;100975.28;5052801;27;45797;-73
2022/09/10 02:21:50;;;;;;;;;1.67;1.00;;;;;17.58;65.78;100938.56;5038618;28;45457;-72
2022/09/10 02:24:16;;;;;;;;;1.33;1.33;;;;;17.55;65.80;100928.03;5054144;27;45752;-72
2022/09/10 02:26:43;;;;;;;;;1.00;1.00;;;;;17.73;65.77;100974.41;5037873;28;45461;-75
2022/09/10 02:29:12;;;;;;;;;5.00;2.00;;;;;17.60;65.31;100949.09;5054954;27;46103;-72
2022/09/10 02:31:38;;;;;;;;;1.00;1.00;;;;;17.13;65.62;100867.25;5045134;28;45866;-73
2022/09/10 02:34:04;;;;;;;;;2.33;2.33;;;;;17.67;65.25;100963.06;5064424;27;45290;-73
2022/09/10 02:36:30;;;;;;;;;2.67;2.00;;;;;17.42;65.53;100928.38;5075506;27;45460;-73
2022/09/10 02:39:14;;;;;;;;;1.00;1.00;;;;;17.74;65.52;100969.97;5078888;27;45525;-72
2022/09/10 02:42:15;;;;;;;;;4.00;2.00;;;;;16.85;65.65;100823.81;5078379;27;45547;-72
2022/09/10 02:44:55;;;;;;;;;1.00;1.00;;;;;17.64;65.25;100948.13;5075563;27;45617;-70
2022/09/10 02:48:03;;;;;;;;;2.00;2.00;;;;;17.72;65.42;100963.84;5043309;28;45247;-72
2022/09/10 02:50:40;;;;;;;;;3.00;1.00;;;;;17.74;65.24;100968.19;5055807;28;47763;-73
2022/09/10 02:53:06;;;;;;;;;0.33;0.33;;;;;17.73;65.39;100976.19;5054700;28;45481;-73
2022/09/10 02:55:32;;;;;;;;;3.00;2.00;;;;;17.66;65.47;100961.34;5054166;28;45666;-72
2022/09/10 02:57:57;;;;;;;;;3.33;2.00;;;;;17.69;65.22;100970.06;5056361;27;45850;-72
2022/09/10 03:00:23;;;;;;;;;2.33;1.00;;;;;17.75;65.28;100980.53;5039109;28;46237;-73
2022/09/10 03:02:49;;;;;;;;;1.33;1.33;;;;;17.69;65.20;100970.06;5036477;28;45676;-73
2022/09/10 03:05:16;;;;;;;;;1.00;1.00;;;;;17.74;65.16;100960.22;5053368;27;45868;-72
2022/09/10 03:07:42;;;;;;;;;2.00;2.00;;;;;17.85;65.16;100988.31;5053684;27;45352;-73
2022/09/10 03:10:09;;;;;;;;;4.00;1.67;;;;;17.70;64.69;100960.34;5054723;28;45563;-72
2022/09/10 03:12:35;;;;;;;;;5.00;1.00;;;;;17.65;65.11;100951.66;5059262;27;45589;-72
2022/09/10 03:15:01;;;;;;;;;1.67;1.00;;;;;17.84;65.03;100987.41;5057860;27;45517;-74
2022/09/10 03:17:27;;;;;;;;;1.33;1.33;;;;;17.45;65.03;100926.50;5035912;28;45520;-71
2022/09/10 03:19:52;;;;;;;;;3.00;1.67;;;;;17.63;64.83;100943.75;5052701;27;45650;-72
2022/09/10 03:22:18;;;;;;;;;1.67;1.00;;;;;17.90;65.31;100991.72;5056047;28;45447;-73
2022/09/10 03:24:45;;;;;;;;;3.33;1.00;;;;;17.73;64.84;100950.56;5034941;28;45499;-72
2022/09/10 03:27:14;;;;;;;;;3.00;2.67;;;;;17.93;64.95;100970.44;5055542;27;45500;-72
2022/09/10 03:29:40;;;;;;;;;2.00;2.00;;;;;17.72;65.07;100955.88;5054272;27;46094;-73
2022/09/10 03:32:05;;;;;;;;;2.00;2.00;;;;;17.84;64.87;100979.47;5038947;28;45382;-71
2022/09/10 03:34:31;;;;;;;;;2.67;2.67;;;;;17.75;64.88;100971.72;5074469;27;45522;-72
2022/09/10 03:36:56;;;;;;;;;2.67;2.67;;;;;17.87;64.87;100987.34;5063103;27;45405;-72
2022/09/10 03:39:22;;;;;;;;;2.33;2.00;;;;;17.92;64.47;100984.59;5080706;27;46274;-72
2022/09/10 03:41:48;;;;;;;;;2.00;2.00;;;;;17.84;64.60;100966.22;5062416;27;45612;-72
2022/09/10 03:44:14;;;;;;;;;3.00;3.00;;;;;17.81;64.67;100971.59;5059221;28;45596;-74
2022/09/10 03:46:40;;;;;;;;;2.00;2.00;;;;;17.78;64.60;100967.22;5058739;27;45678;-75
2022/09/10 03:49:06;;;;;;;;;2.33;1.00;;;;;17.92;64.52;100977.50;5076835;27;45591;-73
2022/09/10 03:51:33;;;;;;;;;3.33;1.67;;;;;17.92;64.39;100980.16;5091037;27;45366;-73
2022/09/10 03:53:59;;;;;;;;;2.00;1.67;;;;;17.93;64.52;100986.31;5044853;27;45859;-72
2022/09/10 03:56:27;;;;;;;;;2.00;2.00;;;;;17.93;64.53;100979.25;5078914;27;45843;-73
2022/09/10 03:58:52;;;;;;;;;1.00;1.00;;;;;17.88;64.46;100975.84;5059578;28;46671;-72
2022/09/10 04:01:18;;;;;;;;;3.00;2.00;;;;;17.79;64.67;100963.63;5066804;27;45388;-74
2022/09/10 04:03:45;;;;;;;;;1.00;1.00;;;;;17.83;64.36;100967.13;5076210;27;45553;-74
2022/09/10 04:06:12;;;;;;;;;3.67;1.00;;;;;17.77;64.58;100954.88;5084257;27;45492;-74
2022/09/10 04:08:39;;;;;;;;;3.00;1.00;;;;;17.84;64.37;100960.91;5080164;27;46432;-74
2022/09/10 04:11:05;;;;;;;;;1.00;1.00;;;;;17.97;64.27;100975.63;5081522;27;45479;-72
2022/09/10 04:13:31;;;;;;;;;3.67;1.67;;;;;17.68;64.43;100941.84;5083063;27;45798;-72
2022/09/10 04:15:59;;;;;;;;;1.33;1.00;;;;;17.98;64.26;100982.63;5083146;27;45312;-74
2022/09/10 04:18:26;;;;;;;;;2.00;2.00;;;;;17.99;64.23;100988.84;5079146;27;47751;-71
2022/09/10 04:20:52;;;;;;;;;3.00;2.67;;;;;17.79;64.52;100954.81;5075810;27;45870;-74
2022/09/10 04:23:19;;;;;;;;;3.33;1.33;;;;;17.89;64.28;100976.69;5078026;27;45474;-73
2022/09/10 04:25:45;;;;;;;;;3.00;1.00;;;;;17.96;64.47;100987.13;5077554;27;45451;-72
2022/09/10 04:28:12;;;;;;;;;3.67;2.33;;;;;17.96;64.54;100983.59;5059210;28;46959;-74
2022/09/10 04:30:39;;;;;;;;;2.67;1.67;;;;;17.95;64.60;100987.16;5072748;27;45489;-73
2022/09/10 04:33:05;;;;;;;;;2.00;1.67;;;;;17.89;64.39;100980.25;5063063;27;45528;-72
2022/09/10 04:35:34;;;;;;;;;1.00;1.00;;;;;17.74;64.61;100957.59;5080101;27;45494;-70
2022/09/10 04:37:59;;;;;;;;;4.33;3.00;;;;;17.48;64.62;100923.78;5058310;27;46733;-71
2022/09/10 04:40:26;;;;;;;;;2.00;1.67;;;;;17.65;64.76;100949.84;5058582;27;45500;-72
2022/09/10 04:42:51;;;;;;;;;2.33;1.00;;;;;17.90;64.76;100997.00;5062307;27;45431;-71
2022/09/10 04:45:18;;;;;;;;;2.00;2.00;;;;;17.81;64.58;100990.13;5040156;27;45899;-72
2022/09/10 04:47:45;;;;;;;;;1.67;1.33;;;;;17.90;64.61;100992.56;5055319;27;46140;-72
2022/09/10 04:50:11;;;;;;;;;3.33;0.33;;;;;17.92;64.59;100993.41;5055623;27;45479;-72
2022/09/10 04:52:37;;;;;;;;;2.00;1.67;;;;;17.93;64.61;100988.97;5038376;28;45490;-72
2022/09/10 04:55:03;;;;;;;;;2.00;2.00;;;;;17.92;64.73;100995.19;5055818;27;45774;-71
2022/09/10 04:57:29;;;;;;;;;2.67;2.33;;;;;17.65;64.57;100946.34;5049448;28;48187;-73
2022/09/10 04:59:54;;;;;;;;;4.33;2.00;;;;;17.75;64.69;100966.44;5056677;27;45488;-72
2022/09/10 05:02:20;;;;;;;;;2.00;2.00;;;;;17.85;64.82;100985.66;5036788;27;45662;-71
2022/09/10 05:04:46;;;;;;;;;3.00;1.33;;;;;17.69;64.70;100963.91;5055212;27;45807;-74
2022/09/10 05:07:11;;;;;;;;;4.00;1.00;;;;;17.79;64.69;100990.13;5045470;27;47583;-72
2022/09/10 05:09:37;;;;;;;;;1.33;1.33;;;;;17.84;64.84;100999.78;5059605;27;45480;-74
2022/09/10 05:12:05;;;;;;;;;2.00;2.00;;;;;17.90;64.68;101005.81;5072720;27;45527;-72
2022/09/10 05:14:32;;;;;;;;;1.67;1.00;;;;;17.83;64.91;101006.00;5072544;27;45409;-72
2022/09/10 05:16:58;;;;;;;;;3.67;2.00;;;;;17.72;65.07;100993.84;5072682;27;46778;-72
2022/09/10 05:19:24;;;;;;;;;4.33;1.33;;;;;17.89;65.17;101014.69;5065532;27;45383;-72
2022/09/10 05:21:50;;;;;;;;;4.00;2.67;;;;;17.92;64.75;101021.69;5057213;27;45429;-72
2022/09/10 05:24:16;;;;;;;;;3.33;2.00;;;;;17.80;64.98;100999.88;5055558;27;45469;-73
2022/09/10 05:26:42;;;;;;;;;2.00;2.00;;;;;17.77;64.87;100999.03;5027914;28;47324;-73
2022/09/10 05:29:09;;;;;;;;;2.00;2.00;;;;;17.96;64.65;101026.88;5068043;27;45714;-72
2022/09/10 05:31:36;;;;;;;;;7.33;3.00;;;;;17.85;65.39;101009.50;5067000;27;45720;-72
2022/09/10 05:34:05;;;;;;;;;2.33;2.33;;;;;17.62;65.35;100992.31;5065056;27;45484;-72
2022/09/10 05:36:31;;;;;;;;;4.00;4.00;;;;;17.88;65.44;101026.19;5044710;28;45461;-72
2022/09/10 05:39:03;;;;;;;;;1.67;1.67;;;;;17.90;65.38;101028.81;5040603;28;45666;-73
2022/09/10 05:41:33;;;;;;;;;5.00;2.33;;;;;17.69;65.20;100993.06;5067452;27;45541;-73
2022/09/10 05:43:59;;;;;;;;;3.00;1.67;;;;;17.54;65.32;100967.81;5075208;27;45377;-74
2022/09/10 05:46:27;;;;;;;;;3.00;1.00;;;;;17.62;64.99;100978.22;5070210;27;45951;-73
2022/09/10 05:48:53;;;;;;;;;1.00;1.00;;;;;17.92;65.26;101038.47;5070538;27;45511;-72
2022/09/10 05:51:19;;;;;;;;;2.00;2.00;;;;;17.85;65.04;101028.91;5065862;27;45548;-73
2022/09/10 05:53:45;;;;;;;;;2.33;2.33;;;;;17.66;65.23;100999.28;5040859;28;45430;-72
2022/09/10 05:56:10;;;;;;;;;4.33;3.00;;;;;17.89;65.09;101041.19;5054655;27;45570;-72
2022/09/10 05:58:36;;;;;;;;;4.00;1.33;;;;;17.92;65.33;101056.16;5060037;27;45449;-72
2022/09/10 06:01:12;;;;;;;;;3.00;1.00;;;;;17.87;65.40;101040.34;5075621;27;45526;-72
2022/09/10 06:03:39;;;;;;;;;2.00;2.00;;;;;17.72;65.58;101035.34;5064382;27;45279;-72
2022/09/10 06:06:08;;;;;;;;;1.67;1.00;;;;;17.76;65.29;101031.75;5057343;27;46032;-73
2022/09/10 06:08:38;;;;;;;;;1.00;1.00;;;;;17.86;65.35;101051.84;5060687;27;45465;-72
2022/09/10 06:11:05;;;;;;;;;1.00;1.00;;;;;17.91;65.23;101047.31;5071391;27;45330;-72
2022/09/10 06:13:37;;;;;;;;;2.67;1.33;;;;;17.14;65.23;100958.09;5071114;27;45370;-72
2022/09/10 06:16:04;;;;;;;;;3.33;2.00;;;;;17.86;65.25;101056.28;5069810;28;45468;-72
2022/09/10 06:18:38;;;;;;;;;1.00;1.00;;;;;17.95;65.16;101075.47;5075446;27;45385;-72
2022/09/10 06:21:11;;;;;;;;;2.33;2.33;;;;;17.66;65.35;101016.97;5063278;27;45391;-72
2022/09/10 06:23:38;;;;;;;;;2.00;2.00;;;;;18.02;65.01;101071.78;5067645;27;45608;-73
2022/09/10 06:26:12;;;;;;;;;2.67;2.00;;;;;18.11;64.86;101083.09;5058530;28;45547;-71
2022/09/10 06:28:39;;;;;;;;;2.00;2.00;;;;;18.12;64.62;101077.72;5039383;27;45489;-74
2022/09/10 06:31:06;;;;;;;;;3.00;3.00;;;;;18.12;64.63;101082.16;5065929;27;45349;-73
2022/09/10 06:33:33;;;;;;;;;2.00;2.00;;;;;18.12;64.64;101084.81;5075063;27;45429;-71
2022/09/10 06:36:00;;;;;;;;;1.67;1.67;;;;;18.10;64.54;101078.69;5062216;27;45758;-72
2022/09/10 06:38:32;;;;;;;;;8.67;3.67;;;;;18.02;64.43;101087.69;5063011;27;45496;-71
2022/09/10 06:41:04;;;;;;;;;2.67;2.33;;;;;18.13;64.34;101082.16;5071499;27;45575;-74
2022/09/10 06:43:32;;;;;;;;;3.33;2.00;;;;;18.17;64.62;101093.53;5021636;28;45955;-73
2022/09/10 06:45:58;;;;;;;;;3.00;1.33;;;;;18.12;64.19;101082.16;5062569;28;45585;-73
2022/09/10 06:48:27;;;;;;;;;2.00;2.00;;;;;18.29;64.17;101089.72;5053498;27;45987;-74
2022/09/10 06:50:58;;;;;;;;;1.67;1.67;;;;;18.27;63.93;101083.56;5056796;28;45686;-74
2022/09/10 06:53:28;;;;;;;;;2.00;0.00;;;;;18.47;63.67;101099.00;5053951;28;45690;-75
2022/09/10 06:56:10;;;;;;;;;2.67;2.67;;;;;18.53;63.25;101097.09;5039426;28;47559;-75
2022/09/10 06:58:39;;;;;;;;;3.00;3.00;;;;;18.62;63.23;101099.47;5048938;27;45470;-76
2022/09/10 07:01:10;;;;;;;;;2.33;1.33;;;;;18.69;62.78;101099.31;5045717;28;45550;-77
2022/09/10 07:04:00;;;;;;;;;3.00;3.00;;;;;18.57;62.74;101069.53;5064611;27;45545;-75
2022/09/10 07:06:33;;;;;;;;;2.00;2.00;;;;;18.67;62.60;101075.47;5048286;28;45563;-74
2022/09/10 07:09:00;;;;;;;;;3.00;2.00;;;;;18.95;62.19;101106.63;5066649;27;45870;-76
2022/09/10 07:11:30;;;;;;;;;4.67;2.33;;;;;18.62;62.25;101056.16;5056048;27;45327;-74
2022/09/10 07:14:02;;;;;;;;;3.00;2.00;;;;;18.92;62.32;101110.25;5061385;27;45439;-71
2022/09/10 07:16:54;;;;;;;;;;;;;;;;;;;;;
2022/09/10 07:19:30;;;;;;;;;0.67;0.00;;;;;18.97;62.09;101121.59;5057774;28;72738;-78
2022/09/10 07:21:57;;;;;;;;;2.67;2.67;;;;;18.74;62.05;101086.81;5038942;28;45634;-72
2022/09/10 07:24:23;;;;;;;;;2.00;2.00;;;;;18.86;62.18;101118.34;5035645;28;45520;-75
2022/09/10 07:26:53;;;;;;;;;4.33;3.00;;;;;18.55;62.58;101079.31;5053698;28;46372;-75
2022/09/10 07:29:22;;;;;;;;;5.00;3.00;;;;;18.72;62.40;101123.13;5053648;28;45469;-75
2022/09/10 07:31:48;;;;;;;;;3.00;3.00;;;;;18.44;62.79;101081.41;5042092;27;46066;-74
2022/09/10 07:34:17;;;;;;;;;2.67;2.00;;;;;18.69;62.79;101120.56;5065611;27;46347;-73
2022/09/10 07:36:42;;;;;;;;;3.00;3.00;;;;;18.73;62.58;101127.53;5062479;27;45550;-73
2022/09/10 07:39:09;;;;;;;;;5.00;3.67;;;;;18.52;62.57;101084.72;5067323;27;45382;-72
2022/09/10 07:41:35;;;;;;;;;4.00;3.00;;;;;18.89;62.34;101130.66;5072526;27;45481;-72
2022/09/10 07:44:04;;;;;;;;;2.67;2.67;;;;;18.80;62.11;101114.09;5076924;27;45746;-73
2022/09/10 07:46:30;;;;;;;;;3.67;2.00;;;;;18.91;62.20;101121.78;5039334;28;47990;-75
2022/09/10 07:49:37;;;;;;;;;2.00;2.00;;;;;19.23;61.96;101128.88;5069315;28;45473;-78
2022/09/10 07:52:06;;;;;;;;;4.00;3.00;;;;;19.07;61.69;101101.00;5050407;28;45311;-76
2022/09/10 07:54:32;;;;;;;;;1.00;1.00;;;;;19.25;61.69;101136.78;5048481;28;45473;-71
2022/09/10 07:56:57;;;;;;;;;2.00;2.00;;;;;18.99;61.69;101108.31;5041888;28;45498;-72
2022/09/10 07:59:23;;;;;;;;;1.33;1.00;;;;;19.15;61.50;101136.19;5047973;28;45554;-74
2022/09/10 08:01:52;;;;;;;;;1.67;1.67;;;;;19.06;61.83;101131.97;5049304;28;45804;-72
2022/09/10 08:04:17;;;;;;;;;2.33;2.00;;;;;19.12;62.00;101146.88;5049727;28;45652;-72
2022/09/10 08:06:44;;;;;;;;;2.33;2.00;;;;;18.96;61.81;101125.19;5052625;28;45551;-72
2022/09/10 08:09:09;;;;;;;;;3.00;2.00;;;;;18.84;61.74;101102.50;5042515;28;45565;-73
2022/09/10 08:11:35;;;;;;;;;3.00;1.00;;;;;18.96;61.82;101130.50;5046136;28;45496;-75
2022/09/10 08:14:03;;;;;;;;;2.00;2.00;;;;;19.04;61.95;101132.94;5050755;28;45850;-73
2022/09/10 08:16:29;;;;;;;;;1.33;1.33;;;;;19.20;61.75;101155.50;5041090;28;45505;-74
2022/09/10 08:18:59;;;;;;;;;2.00;2.00;;;;;19.17;61.67;101141.44;5053141;28;45521;-75
2022/09/10 08:21:25;;;;;;;;;3.00;1.33;;;;;19.24;61.82;101151.88;5054773;28;45288;-75
2022/09/10 08:23:53;;;;;;;;;3.67;2.00;;;;;19.25;61.79;101156.25;5055282;28;45469;-73
2022/09/10 08:26:22;;;;;;;;;1.67;1.00;;;;;19.28;61.72;101164.13;5056234;28;45496;-73
2022/09/10 08:28:49;;;;;;;;;2.00;2.00;;;;;19.27;61.98;101159.75;5054046;28;45623;-71
2022/09/10 08:31:18;;;;;;;;;4.00;2.00;;;;;19.23;61.48;101149.25;5050185;28;45760;-73
2022/09/10 08:33:51;;;;;;;;;5.00;3.67;;;;;19.30;61.41;101168.53;5040600;28;45403;-73
2022/09/10 08:36:20;;;;;;;;;3.00;3.00;;;;;19.18;61.64;101138.75;5054242;28;45487;-71
2022/09/10 08:38:47;;;;;;;;;2.00;2.00;;;;;19.13;61.47;101127.38;5050063;28;45978;-74
2022/09/10 08:41:34;;;;;;;;;2.00;2.00;;;;;19.40;61.21;101156.75;5051521;28;45320;-72
2022/09/10 08:44:03;;;;;;;;;2.00;2.00;;;;;19.44;61.23;101166.38;5054514;28;45630;-74
2022/09/10 08:46:39;;;;;;;;;2.67;2.67;;;;;19.51;61.20;101167.09;5049381;28;45397;-73
2022/09/10 08:49:22;;;;;;;;;3.00;3.00;;;;;19.36;61.08;101139.13;5066040;28;45450;-72
2022/09/10 08:52:00;;;;;;;;;3.00;3.00;;;;;19.68;60.98;101183.44;5069478;28;45895;-72
2022/09/10 08:54:33;;;;;;;;;4.00;4.00;;;;;19.79;60.22;101180.44;5072327;28;45407;-72
2022/09/10 08:57:01;;;;;;;;;3.67;2.67;;;;;19.85;59.93;101189.13;5074466;28;45489;-71
2022/09/10 08:59:41;;;;;;;;;4.33;3.67;;;;;19.82;60.01;101172.41;5068360;28;45845;-72
2022/09/10 09:02:22;;;;;;;;;3.00;3.00;;;;;19.90;59.98;101178.34;5060435;28;45488;-72
2022/09/10 09:04:58;;;;;;;;;2.67;2.67;;;;;19.92;59.98;101185.38;5060651;28;45320;-71
2022/09/10 09:07:29;;;;;;;;;2.00;2.00;;;;;19.91;59.93;101191.63;5056788;28;45387;-73
2022/09/10 09:09:55;;;;;;;;;2.33;2.33;;;;;19.73;59.72;101156.72;5055484;28;45607;-72
2022/09/10 09:12:35;;;;;;;;;3.67;3.67;;;;;19.70;60.33;101168.31;5058987;28;45311;-71
2022/09/10 09:15:16;;;;;;;;;2.67;2.00;;;;;19.79;60.75;101189.31;5060454;28;45346;-72
2022/09/10 09:17:41;;;;;;;;;2.67;2.67;;;;;19.74;60.54;101191.22;5058706;28;45239;-72
2022/09/10 09:20:13;;;;;;;;;2.33;2.33;;;;;19.73;61.01;101202.78;5059802;28;46086;-72
2022/09/10 09:22:55;;;;;;;;;2.00;2.00;;;;;19.75;61.17;101195.63;5060113;28;45405;-75
2022/09/10 09:25:41;;;;;;;;;6.00;3.00;;;;;19.83;61.15;101198.91;5041799;28;45493;-73
2022/09/10 09:28:20;;;;;;;;;3.33;3.00;;;;;19.70;61.01;101165.66;5057236;28;45418;-73
2022/09/10 09:30:50;;;;;;;;;4.67;2.67;;;;;19.92;60.91;101208.44;5049345;28;46841;-72
2022/09/10 09:33:23;;;;;;;;;4.00;4.00;;;;;19.85;60.95;101174.97;5041641;28;45554;-71
2022/09/10 09:35:59;;;;;;;;;2.00;2.00;;;;;19.86;61.15;101176.69;5055510;28;45307;-72
2022/09/10 09:38:34;;;;;;;;;3.00;3.00;;;;;20.05;60.82;101198.28;5055365;28;45526;-72
2022/09/10 09:41:24;;;;;;;;;3.00;2.00;;;;;19.90;60.28;101175.69;5056104;28;46459;-72
2022/09/10 09:43:54;;;;;;;;;2.00;2.00;;;;;20.07;60.52;101210.66;5051811;28;45502;-75
2022/09/10 09:46:23;;;;;;;;;4.33;4.33;;;;;19.98;60.88;101210.91;5053901;28;46982;-72
2022/09/10 09:48:54;;;;;;;;;4.33;2.00;;;;;19.86;61.02;101208.59;5054875;28;45390;-72
2022/09/10 09:51:20;;;;;;;;;3.00;3.00;;;;;19.72;61.37;101198.38;5054937;28;45408;-73
2022/09/10 09:53:55;;;;;;;;;2.33;2.33;;;;;19.72;61.70;101211.66;5055255;28;45696;-72
2022/09/10 09:56:23;;;;;;;;;4.00;2.00;;;;;19.74;61.95;101227.56;5037038;28;45454;-71
2022/09/10 09:58:51;;;;;;;;;2.67;2.67;;;;;19.66;62.21;101231.25;5057322;28;45836;-72
2022/09/10 10:01:23;;;;;;;;;4.33;3.00;;;;;19.51;62.54;101209.59;5056395;28;45496;-73
2022/09/10 10:04:00;;;;;;;;;2.00;2.00;;;;;19.60;63.01;101233.22;5054881;28;45511;-71
2022/09/10 10:06:31;;;;;;;;;3.00;2.33;;;;;19.05;63.42;101148.84;5058293;28;45412;-73
2022/09/10 10:09:04;;;;;;;;;3.67;2.00;;;;;19.50;63.65;101227.28;5053800;28;45893;-72
2022/09/10 10:11:53;;;;;;;;;2.67;2.00;;;;;19.56;63.41;101234.25;5053350;28;46376;-72
2022/09/10 10:14:19;;;;;;;;;2.67;2.67;;;;;19.59;63.38;101235.00;5053568;28;46010;-74
2022/09/10 10:16:47;;;;;;;;;2.00;2.00;;;;;19.22;63.33;101174.94;5058878;28;45236;-73
2022/09/10 10:19:39;;;;;;;;;3.33;2.00;;;;;19.64;63.30;101229.56;5054861;28;45661;-75
2022/09/10 10:22:15;;;;;;;;;5.00;4.00;;;;;19.70;63.03;101225.00;5037726;28;46975;-73
2022/09/10 10:24:42;;;;;;;;;2.33;2.33;;;;;19.74;62.78;101233.72;5069402;28;46220;-74
2022/09/10 10:27:31;;;;;;;;;2.67;2.00;;;;;19.56;63.12;101218.28;5054926;28;45475;-71
2022/09/10 10:30:06;;;;;;;;;2.33;2.33;;;;;19.50;63.17;101203.38;5048406;28;45568;-72
2022/09/10 10:32:43;;;;;;;;;2.33;2.33;;;;;19.69;63.13;101231.25;5054657;28;46270;-73
2022/09/10 10:35:33;;;;;;;;;2.00;2.00;;;;;19.68;63.36;101231.25;5054308;28;45382;-71
2022/09/10 10:38:24;;;;;;;;;3.67;2.67;;;;;19.67;63.37;101240.09;5054258;28;45625;-73
2022/09/10 10:41:24;;;;;;;;;2.00;2.00;;;;;19.65;63.71;101242.81;5053129;28;45379;-72
2022/09/10 10:44:16;;;;;;;;;3.33;3.00;;;;;19.64;64.57;101221.59;5054671;28;46257;-72
2022/09/10 10:47:15;;;;;;;;;4.00;3.00;;;;;19.59;64.14;101210.22;5052669;28;45466;-73
2022/09/10 10:50:17;;;;;;;;;3.00;3.00;;;;;19.83;63.93;101236.13;5054606;28;45512;-70
2022/09/10 10:53:14;;;;;;;;;2.00;2.00;;;;;19.95;64.05;101231.38;5046627;28;45410;-73
2022/09/10 10:55:44;;;;;;;;;2.33;2.33;;;;;20.07;63.64;101234.56;5053839;28;45440;-74
2022/09/10 10:58:19;;;;;;;;;4.00;2.33;;;;;20.12;63.60;101226.44;5053807;28;45503;-78
2022/09/10 11:01:20;;;;;;;;;3.00;3.00;;;;;20.24;63.43;101230.50;5053197;28;45749;-76
2022/09/10 11:04:21;;;;;;;;;3.00;2.00;;;;;20.36;63.49;101229.28;5057771;28;45744;-75
2022/09/10 11:06:56;;;;;;;;;3.67;3.33;;;;;20.26;63.45;101189.69;5052594;28;45768;-75
2022/09/10 11:09:24;;;;;;;;;3.33;3.33;;;;;20.36;63.58;101208.00;5050223;28;45689;-75
2022/09/10 11:12:03;;;;;;;;;3.67;3.67;;;;;20.41;63.24;101214.06;5053646;28;45931;-76
2022/09/10 11:14:54;;;;;;;;;3.00;2.33;;;;;20.44;63.28;101216.63;5055347;28;45630;-79
2022/09/10 11:17:28;;;;;;;;;2.00;2.00;;;;;20.50;63.22;101222.63;5045026;28;46337;-74
2022/09/10 11:20:07;;;;;;;;;2.33;2.33;;;;;20.38;63.19;101191.06;5047088;28;45418;-73
2022/09/10 11:22:39;;;;;;;;;3.00;3.00;;;;;20.36;63.16;101176.06;5055508;28;45497;-74
2022/09/10 11:25:29;;;;;;;;;4.00;4.00;;;;;20.54;62.83;101205.63;5058041;28;45432;-75
2022/09/10 11:28:07;;;;;;;;;3.00;3.00;;;;;20.65;62.71;101207.97;5057916;28;45475;-73
2022/09/10 11:30:34;;;;;;;;;4.67;3.67;;;;;20.72;62.24;101196.22;5055650;28;45442;-81
2022/09/10 11:33:10;;;;;;;;;3.67;3.67;;;;;20.62;62.04;101160.19;5039539;28;45422;-75
2022/09/10 11:36:34;;;;;;;;;3.00;3.00;;;;;21.09;61.47;101215.41;5057511;28;45902;-77
2022/09/10 11:39:16;;;;;;;;;4.00;3.00;;;;;21.37;60.67;101208.19;4987799;28;47381;-78
2022/09/10 11:41:47;;;;;;;;;3.33;3.00;;;;;21.59;60.36;101210.13;5050605;28;45423;-75
2022/09/10 11:44:33;;;;;;;;;3.00;3.00;;;;;21.84;59.43;101209.22;5057967;28;45663;-78
2022/09/10 11:47:18;;;;;;;;;4.33;4.33;;;;;21.84;59.05;101209.22;5059383;28;45532;-79
2022/09/10 11:50:09;;;;;;;;;3.33;3.33;;;;;21.90;58.75;101212.53;5054898;28;45492;-74
2022/09/10 11:52:35;;;;;;;;;4.67;3.67;;;;;21.96;58.76;101209.63;5042998;28;45430;-75
2022/09/10 11:55:07;;;;;;;;;4.33;4.33;;;;;21.77;58.94;101190.78;5053319;28;45592;-74